createdAt,value
2022-08-02T00:00:08.891Z,20.2
2022-08-02T00:02:09.090Z,20.1
2022-08-02T00:04:08.948Z,20.1
2022-08-02T00:06:08.931Z,20.1
2022-08-02T00:08:08.870Z,20.1
2022-08-02T00:10:08.858Z,20.2
2022-08-02T00:12:38.871Z,20.2
2022-08-02T00:14:38.874Z,20.5
2022-08-02T00:16:38.869Z,20.3
2022-08-02T00:18:38.870Z,20.1
2022-08-02T00:20:38.867Z,20.0
2022-08-02T00:22:38.863Z,20.1
2022-08-02T00:24:38.857Z,20.2
2022-08-02T00:26:38.866Z,20.5
2022-08-02T00:28:38.968Z,20.5
2022-08-02T00:30:38.867Z,20.3
2022-08-02T00:32:38.875Z,20.3
2022-08-02T00:34:38.986Z,20.4
2022-08-02T00:36:38.865Z,20.4
2022-08-02T00:38:38.883Z,20.7
2022-08-02T00:40:38.890Z,20.7
2022-08-02T00:42:38.873Z,20.7
2022-08-02T00:44:38.910Z,20.6
2022-08-02T00:46:38.880Z,20.5
2022-08-02T00:48:41.356Z,20.4
2022-08-02T00:50:38.890Z,20.3
2022-08-02T00:52:38.899Z,20.0
2022-08-02T00:54:38.891Z,19.6
2022-08-02T00:56:38.886Z,19.8
2022-08-02T00:58:38.900Z,19.8
2022-08-02T01:00:38.906Z,19.9
2022-08-02T01:02:38.887Z,20.0
2022-08-02T01:04:39.003Z,20.3
2022-08-02T01:06:38.910Z,20.4
2022-08-02T01:08:38.942Z,20.3
2022-08-02T01:10:38.909Z,20.2
2022-08-02T01:12:38.890Z,20.3
2022-08-02T01:14:38.907Z,20.1
2022-08-02T01:16:38.973Z,20.5
2022-08-02T01:18:38.971Z,20.5
2022-08-02T01:20:38.900Z,20.6
2022-08-02T01:23:00.497Z,20.6
2022-08-02T01:24:38.928Z,20.7
2022-08-02T01:26:38.907Z,20.2
2022-08-02T01:28:38.920Z,20.1
2022-08-02T01:30:38.919Z,20.0
2022-08-02T01:32:38.934Z,20.2
2022-08-02T01:34:38.957Z,20.3
2022-08-02T01:36:38.940Z,20.2
2022-08-02T01:38:38.924Z,19.6
2022-08-02T01:40:38.933Z,19.7
2022-08-02T01:42:38.926Z,19.9
2022-08-02T01:44:38.932Z,19.9
2022-08-02T01:46:38.947Z,19.9
2022-08-02T01:48:38.929Z,19.8
2022-08-02T01:50:38.935Z,19.9
2022-08-02T01:52:38.931Z,20.3
2022-08-02T01:54:39.032Z,20.6
2022-08-02T01:56:38.932Z,20.6
2022-08-02T01:58:38.922Z,20.5
2022-08-02T02:00:38.943Z,20.5
2022-08-02T02:02:38.943Z,20.4
2022-08-02T02:04:38.943Z,20.2
2022-08-02T02:06:38.950Z,20.1
2022-08-02T02:08:39.028Z,20.1
2022-08-02T02:12:09.350Z,20.4
2022-08-02T02:13:08.950Z,20.2
2022-08-02T02:15:08.956Z,20.2
2022-08-02T02:17:08.949Z,20.3
2022-08-02T02:19:08.949Z,20.2
2022-08-02T02:21:08.951Z,20.0
2022-08-02T02:23:08.965Z,20.2
2022-08-02T02:25:11.415Z,20.2
2022-08-02T02:27:08.940Z,20.4
2022-08-02T02:29:08.977Z,20.7
2022-08-02T02:31:08.983Z,20.9
2022-08-02T02:33:08.979Z,20.8
2022-08-02T02:35:09.008Z,20.8
2022-08-02T02:37:08.957Z,20.9
2022-08-02T02:39:13.380Z,20.9
2022-08-02T02:41:08.957Z,21.2
2022-08-02T02:43:09.070Z,21.3
2022-08-02T02:45:08.965Z,21.1
2022-08-02T02:47:08.985Z,21.1
2022-08-02T02:49:09.005Z,21.4
2022-08-02T02:51:13.870Z,21.2
2022-08-02T02:53:08.983Z,21.3
2022-08-02T02:55:08.983Z,20.9
2022-08-02T02:57:08.998Z,20.8
2022-08-02T02:59:09.012Z,20.9
2022-08-02T03:01:09.060Z,21.1
2022-08-02T03:03:08.999Z,21.2
2022-08-02T03:05:08.982Z,21.2
2022-08-02T03:07:08.988Z,21.5
2022-08-02T03:09:10.010Z,21.3
2022-08-02T03:11:09.002Z,21.0
2022-08-02T03:13:09.016Z,21.0
2022-08-02T03:15:08.994Z,20.6
2022-08-02T03:17:08.996Z,20.5
2022-08-02T03:19:08.989Z,20.6
2022-08-02T03:21:08.993Z,20.5
2022-08-02T03:23:09.003Z,20.3
2022-08-02T03:25:08.997Z,20.6
2022-08-02T03:27:08.997Z,20.5
2022-08-02T03:29:09.745Z,20.4
2022-08-02T03:31:08.989Z,20.3
2022-08-02T03:33:09.023Z,20.2
2022-08-02T03:35:08.997Z,20.2
2022-08-02T03:37:09.004Z,20.4
2022-08-02T03:39:09.013Z,20.5
2022-08-02T03:41:09.019Z,20.2
2022-08-02T03:43:09.044Z,20.1
2022-08-02T03:45:09.172Z,20.0
2022-08-02T03:47:09.018Z,20.1
2022-08-02T03:49:09.068Z,20.0
2022-08-02T03:51:09.047Z,20.1
2022-08-02T03:53:09.038Z,20.0
2022-08-02T03:55:09.018Z,20.1
2022-08-02T03:57:09.624Z,20.1
2022-08-02T03:59:09.018Z,20.1
2022-08-02T04:01:09.069Z,20.0
2022-08-02T04:03:09.038Z,19.8
2022-08-02T04:05:09.071Z,19.8
2022-08-02T04:07:09.020Z,19.7
2022-08-02T04:09:39.028Z,19.9
2022-08-02T04:11:39.063Z,20.2
2022-08-02T04:13:39.037Z,20.3
2022-08-02T04:15:39.023Z,20.4
2022-08-02T04:17:39.043Z,20.2
2022-08-02T04:19:39.039Z,20.2
2022-08-02T04:21:51.174Z,20.5
2022-08-02T04:23:39.050Z,20.5
2022-08-02T04:25:40.492Z,20.3
2022-08-02T04:27:50.832Z,20.3
2022-08-02T04:29:41.694Z,20.3
2022-08-02T04:31:39.037Z,20.3
2022-08-02T04:33:39.058Z,20.2
2022-08-02T04:35:39.042Z,20.3
2022-08-02T04:37:39.050Z,19.9
2022-08-02T04:39:39.075Z,19.8
2022-08-02T04:41:40.751Z,19.6
2022-08-02T04:43:39.083Z,19.9
2022-08-02T04:45:39.145Z,20.0
2022-08-02T04:48:03.657Z,20.2
2022-08-02T04:49:39.101Z,20.1
2022-08-02T04:51:39.083Z,20.0
2022-08-02T04:53:39.130Z,20.2
2022-08-02T04:55:39.116Z,20.4
2022-08-02T04:57:39.113Z,20.6
2022-08-02T04:59:39.070Z,20.6
2022-08-02T05:01:39.169Z,20.6
2022-08-02T05:03:39.268Z,20.7
2022-08-02T05:05:39.195Z,20.6
2022-08-02T05:07:39.075Z,20.4
2022-08-02T05:09:39.065Z,20.2
2022-08-02T05:11:39.065Z,20.1
2022-08-02T05:13:58.616Z,20.0
2022-08-02T05:15:39.152Z,20.3
2022-08-02T05:17:39.186Z,20.8
2022-08-02T05:19:39.092Z,20.7
2022-08-02T05:21:39.081Z,20.6
2022-08-02T05:23:39.150Z,20.9
2022-08-02T05:25:39.079Z,21.0
2022-08-02T05:27:39.134Z,20.9
2022-08-02T05:29:39.074Z,21.0
2022-08-02T05:31:39.262Z,21.1
2022-08-02T05:33:39.279Z,21.0
2022-08-02T05:35:39.087Z,20.9
2022-08-02T05:37:39.186Z,20.9
2022-08-02T05:39:39.180Z,20.8
2022-08-02T05:41:39.120Z,21.1
2022-08-02T05:43:39.238Z,21.4
2022-08-02T05:45:39.177Z,21.5
2022-08-02T05:47:39.237Z,21.0
2022-08-02T05:49:39.170Z,20.9
2022-08-02T05:51:39.221Z,20.9
2022-08-02T05:53:39.129Z,20.8
2022-08-02T05:55:39.102Z,20.6
2022-08-02T05:57:43.179Z,20.2
2022-08-02T05:59:39.112Z,20.0
2022-08-02T06:01:39.226Z,20.1
2022-08-02T06:07:47.537Z,20.4
2022-08-02T06:09:47.539Z,20.5
2022-08-02T06:12:00.679Z,20.4
2022-08-02T06:13:47.608Z,20.3
2022-08-02T06:15:53.526Z,20.0
2022-08-02T06:17:47.935Z,20.0
2022-08-02T06:19:52.198Z,19.9
2022-08-02T06:22:33.596Z,19.8
2022-08-02T06:23:58.079Z,19.3
2022-08-02T06:25:48.491Z,19.3
2022-08-02T06:27:47.545Z,19.6
2022-08-02T06:29:47.556Z,19.4
2022-08-02T06:31:47.535Z,19.2
2022-08-02T06:33:47.567Z,19.0
2022-08-02T06:35:47.608Z,19.0
2022-08-02T06:37:47.558Z,19.3
2022-08-02T06:40:17.554Z,19.3
2022-08-02T06:42:17.556Z,19.0
2022-08-02T06:44:44.718Z,18.7
2022-08-02T06:46:37.802Z,18.9
2022-08-02T06:48:17.562Z,19.6
2022-08-02T06:50:17.560Z,19.7
2022-08-02T06:52:19.108Z,19.8
2022-08-02T06:54:17.566Z,19.6
2022-08-02T06:56:17.694Z,19.6
2022-08-02T06:58:17.571Z,19.8
2022-08-02T07:00:17.565Z,19.8
2022-08-02T07:02:17.599Z,20.0
2022-08-02T07:04:20.281Z,20.2
2022-08-02T07:06:17.583Z,20.3
2022-08-02T07:08:17.594Z,20.4
2022-08-02T07:10:17.580Z,20.3
2022-08-02T07:12:17.582Z,20.4
2022-08-02T07:14:17.578Z,20.7
2022-08-02T07:16:17.590Z,20.7
2022-08-02T07:18:17.589Z,20.4
2022-08-02T07:20:17.642Z,20.8
2022-08-02T07:22:17.583Z,21.0
2022-08-02T07:24:17.590Z,21.2
2022-08-02T07:26:17.597Z,21.2
2022-08-02T07:28:20.786Z,21.0
2022-08-02T07:30:17.601Z,21.2
2022-08-02T07:32:17.607Z,21.6
2022-08-02T07:34:17.593Z,21.8
2022-08-02T07:36:22.755Z,21.6
2022-08-02T07:38:17.589Z,21.4
2022-08-02T07:40:20.038Z,21.6
2022-08-02T07:42:17.610Z,21.6
2022-08-02T07:44:17.607Z,21.5
2022-08-02T07:46:17.607Z,21.4
2022-08-02T07:48:17.604Z,20.8
2022-08-02T07:50:17.610Z,20.5
2022-08-02T07:52:17.626Z,20.6
2022-08-02T07:54:17.617Z,20.6
2022-08-02T07:56:17.624Z,20.5
2022-08-02T07:58:17.610Z,20.5
2022-08-02T08:00:17.758Z,20.9
2022-08-02T08:02:17.614Z,20.7
2022-08-02T08:04:17.641Z,20.7
2022-08-02T08:06:17.630Z,20.7
2022-08-02T08:08:17.875Z,20.8
2022-08-02T08:10:17.629Z,21.2
2022-08-02T08:12:17.640Z,21.0
2022-08-02T08:14:17.666Z,21.0
2022-08-02T08:16:17.619Z,21.1
2022-08-02T08:18:17.643Z,21.2
2022-08-02T08:20:17.630Z,21.1
2022-08-02T08:22:17.641Z,21.1
2022-08-02T08:24:17.702Z,21.1
2022-08-02T08:26:17.744Z,21.2
2022-08-02T08:28:17.825Z,21.3
2022-08-02T08:30:17.662Z,21.2
2022-08-02T08:32:18.737Z,20.8
2022-08-02T08:34:17.645Z,21.0
2022-08-02T08:36:17.684Z,21.3
2022-08-02T08:38:17.640Z,21.2
2022-08-02T08:40:47.653Z,21.1
2022-08-02T08:42:47.672Z,21.1
2022-08-02T08:44:47.676Z,21.0
2022-08-02T08:46:47.659Z,21.4
2022-08-02T08:48:47.660Z,21.5
2022-08-02T08:50:47.651Z,21.6
2022-08-02T08:52:47.658Z,21.6
2022-08-02T08:54:48.670Z,21.6
2022-08-02T08:56:47.662Z,21.6
2022-08-02T08:58:47.903Z,21.6
2022-08-02T09:00:47.723Z,21.5
2022-08-02T09:02:47.820Z,21.5
2022-08-02T09:04:50.596Z,21.1
2022-08-02T09:06:47.682Z,20.9
2022-08-02T09:08:47.669Z,20.6
2022-08-02T09:10:47.680Z,20.6
2022-08-02T09:12:47.685Z,20.5
2022-08-02T09:14:50.079Z,20.3
2022-08-02T09:16:47.683Z,20.3
2022-08-02T09:18:47.804Z,20.1
2022-08-02T09:20:47.722Z,20.0
2022-08-02T09:22:47.687Z,19.8
2022-08-02T09:24:47.703Z,19.9
2022-08-02T09:26:47.708Z,19.6
2022-08-02T09:28:47.708Z,19.2
2022-08-02T09:30:47.711Z,19.4
2022-08-02T09:32:47.734Z,19.6
2022-08-02T09:34:47.711Z,19.4
2022-08-02T09:36:47.706Z,19.3
2022-08-02T09:38:47.727Z,19.3
2022-08-02T09:40:47.754Z,19.1
2022-08-02T09:42:47.722Z,19.2
2022-08-02T09:44:47.706Z,19.3
2022-08-02T09:46:47.861Z,18.8
2022-08-02T09:48:47.800Z,18.9
2022-08-02T09:50:47.737Z,18.8
2022-08-02T09:52:47.753Z,18.9
2022-08-02T09:54:47.760Z,19.0
2022-08-02T09:56:47.753Z,19.1
2022-08-02T09:58:47.757Z,19.1
2022-08-02T10:00:52.519Z,18.8
2022-08-02T10:02:47.745Z,19.0
2022-08-02T10:04:52.929Z,19.3
2022-08-02T10:06:47.735Z,19.5
2022-08-02T10:08:47.750Z,19.5
2022-08-02T10:10:47.744Z,19.4
2022-08-02T10:12:47.733Z,19.4
2022-08-02T10:14:47.784Z,19.3
2022-08-02T10:16:47.755Z,19.6
2022-08-02T10:18:47.775Z,20.0
2022-08-02T10:20:47.941Z,20.1
2022-08-02T10:22:47.789Z,20.1
2022-08-02T10:24:48.677Z,20.1
2022-08-02T10:26:47.817Z,20.0
2022-08-02T10:28:47.750Z,20.3
2022-08-02T10:30:47.789Z,20.1
2022-08-02T10:32:47.770Z,19.9
2022-08-02T10:34:51.222Z,20.2
2022-08-02T10:36:48.058Z,20.2
2022-08-02T10:38:47.786Z,20.4
2022-08-02T10:40:47.768Z,20.5
2022-08-02T10:42:47.767Z,20.3
2022-08-02T10:45:17.776Z,20.3
2022-08-02T10:47:17.849Z,20.4
2022-08-02T10:49:40.062Z,20.3
2022-08-02T10:51:17.805Z,20.4
2022-08-02T10:53:17.795Z,20.5
2022-08-02T10:55:22.307Z,20.2
2022-08-02T10:57:17.901Z,20.2
2022-08-02T10:59:17.830Z,20.4
2022-08-02T11:01:17.910Z,20.3
2022-08-02T11:03:17.877Z,20.2
2022-08-02T11:05:17.840Z,20.0
2022-08-02T11:07:17.799Z,20.0
2022-08-02T11:09:17.791Z,20.4
2022-08-02T11:11:18.759Z,20.0
2022-08-02T11:13:17.809Z,20.0
2022-08-02T11:15:17.784Z,19.9
2022-08-02T11:17:17.802Z,19.6
2022-08-02T11:19:17.821Z,19.6
2022-08-02T11:21:17.802Z,19.7
2022-08-02T11:23:17.835Z,20.0
2022-08-02T11:25:17.813Z,20.0
2022-08-02T11:27:17.931Z,20.0
2022-08-02T11:29:17.826Z,19.8
2022-08-02T11:31:17.838Z,20.0
2022-08-02T11:33:17.841Z,20.0
2022-08-02T11:35:17.838Z,19.7
2022-08-02T11:37:17.822Z,19.6
2022-08-02T11:39:17.849Z,19.7
2022-08-02T11:41:17.931Z,19.8
2022-08-02T11:43:17.865Z,20.0
2022-08-02T11:45:20.807Z,19.9
2022-08-02T11:47:17.825Z,19.9
2022-08-02T11:49:17.913Z,19.8
2022-08-02T11:51:17.847Z,19.8
2022-08-02T11:53:17.867Z,19.6
2022-08-02T11:55:18.011Z,19.8
2022-08-02T11:57:20.066Z,19.8
2022-08-02T11:59:17.890Z,20.0
2022-08-02T12:01:17.904Z,20.1
2022-08-02T12:03:19.791Z,20.1
2022-08-02T12:05:17.865Z,20.0
2022-08-02T12:07:17.946Z,19.9
2022-08-02T12:09:19.277Z,19.8
2022-08-02T12:11:17.859Z,20.0
2022-08-02T12:13:17.861Z,20.2
2022-08-02T12:15:17.874Z,20.2
2022-08-02T12:17:17.919Z,20.1
2022-08-02T12:19:17.873Z,19.9
2022-08-02T12:21:17.870Z,19.9
2022-08-02T12:23:17.877Z,19.7
2022-08-02T12:25:34.309Z,19.8
2022-08-02T12:27:17.884Z,19.6
2022-08-02T12:29:58.594Z,20.0
2022-08-02T12:31:17.871Z,20.1
2022-08-02T12:33:17.891Z,19.9
2022-08-02T12:35:26.670Z,19.8
2022-08-02T12:37:17.902Z,20.0
2022-08-02T12:39:17.924Z,19.9
2022-08-02T12:41:31.806Z,19.8
2022-08-02T12:43:17.877Z,19.5
2022-08-02T12:45:17.919Z,19.2
2022-08-02T12:47:17.922Z,19.5
2022-08-02T12:49:18.913Z,19.7
2022-08-02T12:51:56.390Z,19.8
2022-08-02T12:53:47.964Z,20.0
2022-08-02T12:56:01.019Z,20.0
2022-08-02T12:57:48.075Z,20.3
2022-08-02T12:59:47.952Z,20.3
2022-08-02T13:01:48.076Z,20.0
2022-08-02T13:05:56.048Z,20.1
2022-08-02T13:11:26.515Z,20.3
2022-08-02T13:13:26.372Z,20.4
2022-08-02T13:15:50.200Z,20.4
2022-08-02T13:17:26.426Z,20.5
2022-08-02T13:19:26.340Z,20.6
2022-08-02T13:21:40.107Z,20.5
2022-08-02T13:23:26.383Z,20.3
2022-08-02T13:25:56.327Z,20.5
2022-08-02T13:27:56.345Z,20.6
2022-08-02T13:29:56.345Z,20.3
2022-08-02T13:31:56.325Z,20.3
2022-08-02T13:33:56.349Z,20.1
2022-08-02T13:35:56.353Z,20.1
2022-08-02T13:37:56.336Z,20.1
2022-08-02T13:40:19.909Z,20.0
2022-08-02T13:41:56.363Z,20.2
2022-08-02T13:44:01.350Z,20.4
2022-08-02T13:45:56.356Z,20.3
2022-08-02T13:48:04.349Z,20.3
2022-08-02T13:49:56.368Z,19.7
2022-08-02T13:51:56.364Z,19.7
2022-08-02T13:53:56.348Z,19.9
2022-08-02T13:55:56.449Z,20.1
2022-08-02T13:57:56.383Z,19.5
2022-08-02T13:59:59.072Z,19.8
2022-08-02T14:01:56.517Z,19.8
2022-08-02T14:04:07.669Z,20.0
2022-08-02T14:05:56.368Z,20.1
2022-08-02T14:07:58.736Z,20.0
2022-08-02T14:09:56.378Z,19.8
2022-08-02T14:11:56.355Z,19.9
2022-08-02T14:13:56.391Z,20.1
2022-08-02T14:15:56.370Z,20.1
2022-08-02T14:17:56.380Z,20.1
2022-08-02T14:19:56.445Z,20.4
2022-08-02T14:22:11.737Z,20.6
2022-08-02T14:23:56.385Z,20.6
2022-08-02T14:25:56.372Z,20.6
2022-08-02T14:27:56.384Z,20.7
2022-08-02T14:29:56.382Z,21.0
2022-08-02T14:31:56.385Z,20.9
2022-08-02T14:33:56.393Z,21.5
2022-08-02T14:35:56.396Z,21.6
2022-08-02T14:37:56.422Z,21.5
2022-08-02T14:40:00.515Z,21.7
2022-08-02T14:41:59.168Z,21.7
2022-08-02T14:43:56.421Z,21.7
2022-08-02T14:45:56.406Z,21.9
2022-08-02T14:47:56.397Z,21.7
2022-08-02T14:49:56.874Z,22.0
2022-08-02T14:51:56.421Z,22.0
2022-08-02T14:54:02.495Z,21.8
2022-08-02T14:55:56.405Z,21.7
2022-08-02T14:57:56.470Z,21.8
2022-08-02T14:59:56.442Z,21.6
2022-08-02T15:01:56.482Z,21.6
2022-08-02T15:03:56.436Z,21.3
2022-08-02T15:05:56.415Z,21.4
2022-08-02T15:07:56.424Z,21.5
2022-08-02T15:09:56.555Z,21.4
2022-08-02T15:11:56.429Z,21.1
2022-08-02T15:13:57.572Z,21.0
2022-08-02T15:15:56.435Z,20.7
2022-08-02T15:17:56.437Z,20.5
2022-08-02T15:20:00.942Z,20.4
2022-08-02T15:21:57.023Z,20.0
2022-08-02T15:23:56.434Z,20.0
2022-08-02T15:25:56.539Z,19.9
2022-08-02T15:27:56.465Z,19.8
2022-08-02T15:29:56.437Z,19.6
2022-08-02T15:34:26.451Z,19.6
2022-08-02T15:36:26.445Z,19.6
2022-08-02T15:38:26.441Z,19.6
2022-08-02T15:40:26.533Z,19.6
2022-08-02T15:42:30.431Z,19.5
2022-08-02T15:44:26.471Z,19.5
2022-08-02T15:46:31.108Z,19.4
2022-08-02T15:48:26.485Z,19.3
2022-08-02T15:50:26.484Z,19.5
2022-08-02T15:52:26.468Z,19.3
2022-08-02T15:54:26.456Z,19.2
2022-08-02T15:56:26.473Z,19.1
2022-08-02T15:58:26.474Z,19.5
2022-08-02T16:00:26.470Z,19.6
2022-08-02T16:02:26.584Z,19.8
2022-08-02T16:04:26.507Z,19.8
2022-08-02T16:06:26.486Z,19.7
2022-08-02T16:08:26.495Z,19.8
2022-08-02T16:10:26.499Z,19.7
2022-08-02T16:12:32.941Z,19.8
2022-08-02T16:14:26.467Z,19.6
2022-08-02T16:16:26.486Z,19.7
2022-08-02T16:18:26.482Z,19.8
2022-08-02T16:20:26.481Z,19.8
2022-08-02T16:22:26.509Z,20.0
2022-08-02T16:24:26.578Z,19.9
2022-08-02T16:26:26.477Z,19.9
2022-08-02T16:28:26.489Z,20.3
2022-08-02T16:30:26.494Z,20.1
2022-08-02T16:32:26.496Z,20.3
2022-08-02T16:34:26.491Z,20.2
2022-08-02T16:36:27.588Z,20.1
2022-08-02T16:38:26.506Z,20.2
2022-08-02T16:40:26.503Z,20.3
2022-08-02T16:42:26.502Z,20.4
2022-08-02T16:44:29.077Z,20.4
2022-08-02T16:46:26.520Z,20.6
2022-08-02T16:48:26.526Z,20.6
2022-08-02T16:50:27.277Z,20.5
2022-08-02T16:52:26.530Z,20.6
2022-08-02T16:54:26.635Z,20.8
2022-08-02T16:56:26.528Z,20.8
2022-08-02T16:58:26.531Z,20.4
2022-08-02T17:00:26.510Z,20.6
2022-08-02T17:02:26.607Z,20.4
2022-08-02T17:04:26.566Z,20.4
2022-08-02T17:06:27.469Z,20.5
2022-08-02T17:08:31.655Z,20.3
2022-08-02T17:10:26.565Z,20.3
2022-08-02T17:12:26.529Z,20.3
2022-08-02T17:14:26.853Z,20.7
2022-08-02T17:16:26.673Z,21.0
2022-08-02T17:18:26.745Z,21.1
2022-08-02T17:20:26.525Z,20.9
2022-08-02T17:22:26.538Z,20.9
2022-08-02T17:24:26.547Z,20.7
2022-08-02T17:26:26.612Z,20.7
2022-08-02T17:28:31.304Z,20.3
2022-08-02T17:30:27.369Z,20.6
2022-08-02T17:32:29.165Z,20.4
2022-08-02T17:34:26.944Z,20.1
2022-08-02T17:36:26.553Z,20.0
2022-08-02T17:38:27.405Z,20.1
2022-08-02T17:40:56.570Z,20.1
2022-08-02T17:42:56.566Z,20.0
2022-08-02T17:45:01.041Z,19.9
2022-08-02T17:46:56.671Z,20.1
2022-08-02T17:48:56.588Z,20.0
2022-08-02T17:50:56.581Z,19.6
2022-08-02T17:52:56.763Z,19.7
2022-08-02T17:54:56.573Z,19.9
2022-08-02T17:56:56.565Z,20.0
2022-08-02T17:58:56.590Z,20.1
2022-08-02T18:00:56.581Z,20.0
2022-08-02T18:02:56.592Z,20.2
2022-08-02T18:04:56.569Z,19.9
2022-08-02T18:06:56.615Z,20.0
2022-08-02T18:08:56.586Z,20.3
2022-08-02T18:10:56.593Z,20.3
2022-08-02T18:12:59.155Z,20.0
2022-08-02T18:14:56.611Z,19.4
2022-08-02T18:16:56.672Z,19.4
2022-08-02T18:18:56.622Z,19.4
2022-08-02T18:20:56.593Z,19.4
2022-08-02T18:22:58.481Z,19.5
2022-08-02T18:24:56.586Z,19.6
2022-08-02T18:26:56.631Z,19.9
2022-08-02T18:28:56.607Z,19.8
2022-08-02T18:30:56.610Z,19.6
2022-08-02T18:33:59.169Z,19.6
2022-08-02T18:34:56.605Z,19.8
2022-08-02T18:36:56.833Z,19.9
2022-08-02T18:38:56.632Z,20.1
2022-08-02T18:40:56.619Z,20.4
2022-08-02T18:42:56.637Z,20.6
2022-08-02T18:44:56.638Z,20.8
2022-08-02T18:46:56.626Z,20.6
2022-08-02T18:48:56.710Z,20.4
2022-08-02T18:50:56.616Z,20.7
2022-08-02T18:52:56.642Z,20.8
2022-08-02T18:54:56.627Z,20.5
2022-08-02T18:56:56.611Z,20.5
2022-08-02T18:58:56.703Z,20.4
2022-08-02T19:00:56.698Z,20.4
2022-08-02T19:02:56.749Z,20.2
2022-08-02T19:04:56.786Z,20.0
2022-08-02T19:06:56.748Z,20.0
2022-08-02T19:09:05.684Z,20.0
2022-08-02T19:10:57.404Z,20.2
2022-08-02T19:12:56.719Z,20.6
2022-08-02T19:14:56.701Z,20.7
2022-08-02T19:16:56.711Z,20.7
2022-08-02T19:18:57.656Z,20.9
2022-08-02T19:22:56.680Z,20.7
2022-08-02T19:25:01.185Z,20.9
2022-08-02T19:26:57.024Z,20.7
2022-08-02T19:28:56.726Z,20.5
2022-08-02T19:30:56.698Z,20.4
2022-08-02T19:34:56.750Z,20.4
2022-08-02T19:38:56.945Z,20.0
2022-08-02T19:40:56.752Z,19.5
2022-08-02T19:44:26.774Z,19.3
2022-08-02T19:45:48.395Z,19.2
2022-08-02T19:47:26.803Z,19.3
2022-08-02T19:49:40.346Z,19.5
2022-08-02T19:51:50.044Z,19.5
2022-08-02T19:53:28.733Z,19.4
2022-08-02T19:56:01.176Z,19.3
2022-08-02T19:57:26.766Z,19.0
2022-08-02T19:59:26.814Z,19.2
2022-08-02T20:01:36.774Z,19.3
2022-08-02T20:03:51.340Z,19.3
2022-08-02T20:05:27.222Z,19.4
2022-08-02T20:07:54.230Z,19.2
2022-08-02T20:11:26.828Z,18.8
2022-08-02T20:15:15.765Z,18.6
2022-08-02T20:17:15.362Z,18.6
2022-08-02T20:19:15.414Z,18.4
2022-08-02T20:21:34.061Z,18.6
2022-08-02T20:23:33.188Z,18.5
2022-08-02T20:25:15.940Z,18.3
2022-08-02T20:27:21.771Z,18.3
2022-08-02T20:29:15.377Z,18.6
2022-08-02T20:31:15.393Z,18.7
2022-08-02T20:33:21.864Z,18.7
2022-08-02T20:35:15.406Z,18.9
2022-08-02T20:37:59.497Z,19.1
2022-08-02T20:39:15.457Z,19.0
2022-08-02T20:41:21.731Z,19.3
2022-08-02T20:43:15.380Z,19.1
2022-08-02T20:45:15.432Z,19.2
2022-08-02T20:47:15.361Z,19.0
2022-08-02T20:49:23.321Z,19.2
2022-08-02T20:51:15.354Z,19.1
2022-08-02T20:53:24.001Z,19.2
2022-08-02T20:55:16.948Z,19.4
2022-08-02T20:57:15.382Z,19.6
2022-08-02T20:59:15.813Z,19.4
2022-08-02T21:01:57.147Z,19.9
2022-08-02T21:03:45.402Z,19.9
2022-08-02T21:05:55.141Z,20.1
2022-08-02T21:07:47.832Z,20.1
2022-08-02T21:09:52.856Z,20.2
2022-08-02T21:11:50.818Z,20.4
2022-08-02T21:13:47.378Z,20.5
2022-08-02T21:15:45.454Z,20.8
2022-08-02T21:17:52.646Z,20.9
2022-08-02T21:19:45.398Z,21.0
2022-08-02T21:21:45.405Z,20.7
2022-08-02T21:23:54.477Z,20.8
2022-08-02T21:25:56.854Z,20.5
2022-08-02T21:27:53.136Z,20.7
2022-08-02T21:29:45.406Z,20.8
2022-08-02T21:31:45.390Z,20.9
2022-08-02T21:33:57.391Z,20.9
2022-08-02T21:35:45.397Z,20.9
2022-08-02T21:37:45.488Z,20.7
2022-08-02T21:39:45.407Z,20.7
2022-08-02T21:41:47.054Z,20.6
2022-08-02T21:43:45.414Z,20.9
2022-08-02T21:45:53.878Z,20.8
2022-08-02T21:47:45.425Z,21.0
2022-08-02T21:50:13.518Z,20.8
2022-08-02T21:51:49.773Z,20.6
2022-08-02T21:54:17.930Z,20.6
2022-08-02T21:56:01.107Z,20.5
2022-08-02T21:57:45.515Z,20.6
2022-08-02T21:59:45.708Z,20.6
2022-08-02T22:01:52.839Z,20.1
2022-08-02T22:03:55.597Z,20.2
2022-08-02T22:05:47.243Z,20.2
2022-08-02T22:07:45.825Z,20.2
2022-08-02T22:09:46.002Z,20.4
2022-08-02T22:11:46.223Z,20.5
2022-08-02T22:13:47.633Z,20.4
2022-08-02T22:15:45.446Z,20.4
2022-08-02T22:17:51.657Z,20.1
2022-08-02T22:19:53.725Z,20.0
2022-08-02T22:21:54.566Z,20.3
2022-08-02T22:23:50.028Z,20.0
2022-08-02T22:25:45.446Z,20.2
2022-08-02T22:28:35.482Z,19.9
2022-08-02T22:29:45.452Z,20.1
2022-08-02T22:31:45.448Z,20.0
2022-08-02T22:33:47.160Z,20.2
2022-08-02T22:35:45.446Z,20.2
2022-08-02T22:38:16.464Z,20.3
2022-08-02T22:40:05.933Z,20.6
2022-08-02T22:42:05.265Z,20.8
2022-08-02T22:43:45.644Z,20.7
2022-08-02T22:45:45.451Z,20.7
2022-08-02T22:47:51.187Z,20.5
2022-08-02T22:49:54.315Z,20.8
2022-08-02T22:51:45.461Z,21.0
2022-08-02T22:53:45.476Z,20.9
2022-08-02T22:55:45.525Z,21.1
2022-08-02T22:57:56.317Z,20.9
2022-08-02T22:58:59.844Z,20.6
2022-08-02T22:59:45.455Z,20.9
2022-08-02T23:01:45.643Z,21.1
2022-08-02T23:03:45.481Z,20.7
2022-08-02T23:05:45.474Z,20.6
2022-08-02T23:08:15.487Z,20.5
2022-08-02T23:10:15.540Z,20.4
2022-08-02T23:12:15.580Z,20.5
2022-08-02T23:14:15.481Z,20.4
2022-08-02T23:16:15.544Z,20.6
2022-08-02T23:18:15.511Z,20.7
2022-08-02T23:20:15.481Z,20.8
2022-08-02T23:22:15.645Z,20.9
2022-08-02T23:24:15.489Z,21.2
2022-08-02T23:26:15.498Z,21.4
2022-08-02T23:28:15.483Z,21.3
2022-08-02T23:30:15.485Z,20.9
2022-08-02T23:32:15.655Z,21.0
2022-08-02T23:34:15.854Z,20.9
2022-08-02T23:36:15.495Z,21.0
2022-08-02T23:38:15.488Z,20.9
2022-08-02T23:40:15.506Z,20.8
2022-08-02T23:42:15.739Z,20.7
2022-08-02T23:44:15.626Z,20.7
2022-08-02T23:46:15.572Z,21.1
2022-08-02T23:48:15.504Z,21.0
2022-08-02T23:50:15.509Z,21.0
2022-08-02T23:52:15.669Z,20.6
2022-08-02T23:54:15.663Z,20.6
2022-08-02T23:56:15.523Z,20.5
2022-08-02T23:58:15.530Z,20.6
